Port Said Airport, Egypt

04:01 EET 22. Prosinec 2014 (GMT +0200)
Port Said | Change Station
CLOSE
Current Station
Letiště
Location: Port Said Airport,
Nadmořská výška: 7 ft
Poblíž povětrnostní stanice

Výška 7 ft 31.28 °N, 32.24 °E | Updated 1 hour ago

Clear
Jasno
63 °F
Pocit jako 63 °F
S
7
Vítr proměnlivý Vítr od západní

Dnes
Vysoké -- | Nízké -- °F
--% Možnost srážek
Včera
Vysoké -- | Nízké -- °F
Precip. -- inčů
6:45 AM 4:52 PM
Nový měsíc, 0% visible
Tlak 30.15 inčů
Viditelnost -9999.0 mílí
Zataženo
Rosný bod 54 °F
Vlhkost 72%
Dešťové srážky 0.00 inčů
Sněhová pokrývka Není k dispozici
UV záření Není k dispozici
Pyl Není k dispozici
Kvalita ovzduší Není k dispozici
Flu Activity Není k dispozici
METAR HEPS 220100Z 27006KT CAVOK 17/12 Q1021 NOSIG

More Conditions Fewer Conditions

Tlak 30.15 inčů
Viditelnost -9999.0 mílí
Zataženo
Rosný bod 54 °F
Vlhkost 72%
Dešťové srážky 0.00 inčů
Sněhová pokrývka Není k dispozici
UV záření Není k dispozici
Pyl Není k dispozici
Kvalita ovzduší Není k dispozici
Flu Activity Není k dispozici
METAR HEPS 220100Z 27006KT CAVOK 17/12 Q1021 NOSIG

More Conditions Fewer Conditions

10-Day Weather Forecast

Almanac

Astronomie

Dec. 22, 2014 Východ Západ
Skutečný čas
Občanský soumrak
Námořní soumrak
Astronomický soumrak
Měsíc
Délka denního světla
Délka dne
Tomorrow will be .
, % of the Moon is Illuminated

Dnešní extrémy

Nejvyšší hodnoty ve státě Nejnižší hodnoty ve státě

Community

WunderPhotos

Upload Photos

1,779,520 snímků staženo!

WunderBlogs® & News

Nearby

Kvalita ovzduší

  Kvalita ovzduší Index kvality ovzduší Polutant
Not available.

Výška sněhu

Station Hloubka Nadmořská výška

Seizmická činnost

Město Distance Mag. Čas & datum
Minimální zobrazený rozsah je 2.5.

Pobřežní teplota vody

Lokalita Teplota

Poblíž povětrnostní stanice